Time;durP1;ratioP1;P1;durP2;ratioP2;P2;SDS_P1;SDS_P2;PMS_P1;PMS_P2;Temp;Humidity;BMP_temperature;BMP_pressure;BME280_temperature;BME280_humidity;BME280_pressure;Samples;Min_cycle;Max_cycle;Signal;HPM_P1;HPM_P2
2023/03/10 00:01:25;;;;;;;;;;;;;;;16.68;46.30;91778.06;5044272;28;19921;-88
2023/03/10 00:03:50;;;;;;;;;;;;;;;16.68;46.40;91773.34;5028220;28;19928;-88
2023/03/10 00:06:16;;;;;;;;;;;;;;;16.68;45.93;91778.78;5025380;28;19932;-87
2023/03/10 00:08:41;;;;;;;;;;;;;;;16.66;46.81;91773.16;5043978;28;19955;-88
2023/03/10 00:11:07;;;;;;;;;;;;;;;16.65;46.21;91766.25;5036236;28;19917;-88
2023/03/10 00:13:35;;;;;;;;;;;;;;;16.65;46.70;91757.34;5041558;28;20307;-88
2023/03/10 00:16:00;;;;;;;;;;;;;;;16.67;46.13;91749.34;5029275;28;19928;-87
2023/03/10 00:18:25;;;;;;;;;;;;;;;16.66;45.80;91754.06;5037655;28;19924;-87
2023/03/10 00:20:51;;;;;;;;;;;;;;;16.68;47.33;91761.69;5049538;28;19935;-88
2023/03/10 00:23:17;;;;;;;;;;;;;;;16.66;46.28;91753.34;5041223;28;19983;-87
2023/03/10 00:25:42;;;;;;;;;;;;;;;16.66;46.40;91742.44;5033225;28;20299;-87
2023/03/10 00:28:07;;;;;;;;;;;;;;;16.66;45.98;91740.44;5039206;28;19925;-87
2023/03/10 00:30:34;;;;;;;;;;;;;;;16.65;45.98;91735.50;5048693;28;19974;-87
2023/03/10 00:32:59;;;;;;;;;;;;;;;16.65;46.48;91730.78;5048116;28;19924;-88
2023/03/10 00:35:25;;;;;;;;;;;;;;;16.65;45.98;91728.06;5030192;28;20400;-88
2023/03/10 00:37:50;;;;;;;;;;;;;;;16.65;46.00;91730.78;5029743;28;19987;-87
2023/03/10 00:40:15;;;;;;;;;;;;;;;16.65;46.48;91725.31;5048597;28;19932;-87
2023/03/10 00:42:41;;;;;;;;;;;;;;;16.65;46.25;91719.16;5038364;28;20053;-87
2023/03/10 00:45:07;;;;;;;;;;;;;;;16.65;46.52;91722.59;5032824;28;19925;-87
2023/03/10 00:47:32;;;;;;;;;;;;;;;16.64;46.33;91721.16;5034984;28;19929;-88
2023/03/10 00:49:57;;;;;;;;;;;;;;;16.64;45.75;91721.16;5047269;28;19931;-88
2023/03/10 00:52:23;;;;;;;;;;;;;;;16.64;46.34;91707.50;5027853;28;19927;-87
2023/03/10 00:54:48;;;;;;;;;;;;;;;16.65;46.59;91689.13;5042709;28;19925;-88
2023/03/10 00:57:13;;;;;;;;;;;;;;;16.64;46.19;91687.69;5022843;28;20039;-88
2023/03/10 00:59:39;;;;;;;;;;;;;;;16.63;46.34;91686.94;5030858;28;19935;-88
2023/03/10 01:02:04;;;;;;;;;;;;;;;16.63;47.08;91695.13;5047253;28;19939;-87
2023/03/10 01:04:30;;;;;;;;;;;;;;;16.63;46.40;91697.84;5048702;28;20548;-88
2023/03/10 01:06:55;;;;;;;;;;;;;;;16.63;46.15;91684.22;5037709;28;19961;-88
2023/03/10 01:09:21;;;;;;;;;;;;;;;16.63;46.13;91667.84;5023683;28;20318;-88
2023/03/10 01:11:46;;;;;;;;;;;;;;;16.63;45.95;91667.09;5020878;28;19952;-88
2023/03/10 01:14:12;;;;;;;;;;;;;;;16.64;46.13;91660.38;5038909;28;19974;-88
2023/03/10 01:16:37;;;;;;;;;;;;;;;16.62;45.90;91652.00;5039397;28;20375;-88
2023/03/10 01:19:02;;;;;;;;;;;;;;;16.62;45.95;91657.44;5038568;28;19925;-87
2023/03/10 01:21:28;;;;;;;;;;;;;;;16.63;46.47;91653.44;5041042;28;20458;-87
2023/03/10 01:23:54;;;;;;;;;;;;;;;16.63;46.03;91640.56;5027128;28;20484;-88
2023/03/10 01:26:19;;;;;;;;;;;;;;;16.62;46.42;91641.06;5043892;28;20024;-88
2023/03/10 01:28:44;;;;;;;;;;;;;;;16.63;45.89;91637.84;5046703;28;20390;-88
2023/03/10 01:31:09;;;;;;;;;;;;;;;16.64;46.66;91624.94;5047009;28;19985;-87
2023/03/10 01:33:38;;;;;;;;;;;;;;;16.61;46.16;91618.53;5027677;28;19960;-88
2023/03/10 01:36:06;;;;;;;;;;;;;;;16.61;46.32;91620.53;5037513;28;20362;-87
2023/03/10 01:38:31;;;;;;;;;;;;;;;16.61;46.66;91610.34;5032829;28;19929;-88
2023/03/10 01:40:56;;;;;;;;;;;;;;;16.62;47.41;91617.25;5029567;28;19921;-87
2023/03/10 01:43:22;;;;;;;;;;;;;;;16.64;46.49;91616.75;5037386;28;20394;-88
2023/03/10 01:45:47;;;;;;;;;;;;;;;16.62;47.04;91600.88;5041969;28;19975;-88
2023/03/10 01:48:12;;;;;;;;;;;;;;;16.62;46.25;91611.06;5034721;28;19925;-88
2023/03/10 01:50:38;;;;;;;;;;;;;;;16.63;46.74;91596.91;5030859;28;19928;-87
2023/03/10 01:53:03;;;;;;;;;;;;;;;16.63;46.07;91591.47;5045128;28;20118;-88
2023/03/10 01:55:36;;;;;;;;;;;;;;;16.62;46.23;91592.72;5029395;28;19932;-87
2023/03/10 01:58:01;;;;;;;;;;;;;;;16.63;45.95;91593.44;5038785;28;20454;-87
2023/03/10 02:00:28;;;;;;;;;;;;;;;16.63;46.22;91579.78;5044741;28;19925;-88
2023/03/10 02:03:06;;;;;;;;;;;;;;;16.63;46.03;91588.72;5030850;28;19932;-88
2023/03/10 02:05:32;;;;;;;;;;;;;;;16.59;46.35;91576.69;5045987;28;20431;-88
2023/03/10 02:07:57;;;;;;;;;;;;;;;16.58;46.40;91569.78;5017221;28;19961;-88
2023/03/10 02:10:22;;;;;;;;;;;;;;;16.57;46.31;91566.31;5027047;28;19971;-88
2023/03/10 02:12:48;;;;;;;;;;;;;;;16.57;46.30;91560.13;5041998;28;20295;-88
2023/03/10 02:15:14;;;;;;;;;;;;;;;16.58;47.06;91556.88;5018318;28;19925;-88
2023/03/10 02:17:39;;;;;;;;;;;;;;;16.58;46.57;91550.69;5037770;28;20104;-88
2023/03/10 02:20:08;;;;;;;;;;;;;;;16.58;46.38;91553.41;5029927;28;19940;-87
2023/03/10 02:22:34;;;;;;;;;;;;;;;16.57;46.52;91554.69;5046305;28;19929;-87
2023/03/10 02:25:06;;;;;;;;;;;;;;;16.58;46.74;91539.78;5018688;28;20381;-87
2023/03/10 02:27:35;;;;;;;;;;;;;;;16.58;47.01;91535.03;5028575;28;20025;-88
2023/03/10 02:30:10;;;;;;;;;;;;;;;16.61;46.10;91525.03;5046943;28;19952;-88
2023/03/10 02:32:38;;;;;;;;;;;;;;;16.60;46.28;91523.59;5045444;28;19921;-88
2023/03/10 02:35:03;;;;;;;;;;;;;;;16.58;46.47;91529.59;5028928;28;19935;-87
2023/03/10 02:37:30;;;;;;;;;;;;;;;16.60;46.39;91527.03;5039606;28;20000;-87
2023/03/10 02:39:55;;;;;;;;;;;;;;;16.59;46.23;91520.13;5018942;28;19933;-88
2023/03/10 02:42:21;;;;;;;;;;;;;;;16.58;45.84;91520.69;5028701;28;19971;-88
2023/03/10 02:44:46;;;;;;;;;;;;;;;16.58;46.83;91517.94;5020771;28;19939;-87
2023/03/10 02:47:12;;;;;;;;;;;;;;;16.57;46.55;91524.69;5043868;28;20019;-87
2023/03/10 02:49:37;;;;;;;;;;;;;;;16.57;46.63;91513.75;5037352;28;19928;-87
2023/03/10 02:52:02;;;;;;;;;;;;;;;16.56;46.28;91517.75;5046074;28;20322;-87
2023/03/10 02:54:28;;;;;;;;;;;;;;;16.55;46.26;91508.84;5038594;28;19932;-88
2023/03/10 02:56:53;;;;;;;;;;;;;;;16.57;46.31;91511.75;5028549;28;19933;-88
2023/03/10 02:59:18;;;;;;;;;;;;;;;16.56;46.66;91506.84;5013541;28;20314;-87
2023/03/10 03:01:43;;;;;;;;;;;;;;;16.55;46.41;91506.13;5036224;28;19927;-88
2023/03/10 03:04:09;;;;;;;;;;;;;;;16.55;46.36;91497.22;5020407;28;19933;-87
2023/03/10 03:06:34;;;;;;;;;;;;;;;16.57;46.42;91489.22;5046160;28;19921;-88
2023/03/10 03:08:59;;;;;;;;;;;;;;;16.57;46.31;91486.50;5039085;28;20401;-87
2023/03/10 03:11:24;;;;;;;;;;;;;;;16.55;46.42;91478.84;5032126;28;19966;-88
2023/03/10 03:13:50;;;;;;;;;;;;;;;16.55;46.24;91472.66;5035082;28;20411;-88
2023/03/10 03:16:15;;;;;;;;;;;;;;;16.57;46.39;91467.41;5039007;28;19932;-87
2023/03/10 03:18:40;;;;;;;;;;;;;;;16.56;46.14;91474.84;5020245;28;19936;-88
2023/03/10 03:21:06;;;;;;;;;;;;;;;16.56;46.14;91466.66;5044606;28;19924;-87
2023/03/10 03:23:32;;;;;;;;;;;;;;;16.55;46.33;91467.94;5045118;28;19929;-88
2023/03/10 03:25:57;;;;;;;;;;;;;;;16.55;45.95;91461.75;5037115;28;20118;-88
2023/03/10 03:28:22;;;;;;;;;;;;;;;16.55;46.39;91451.56;5033586;28;19929;-87
2023/03/10 03:30:48;;;;;;;;;;;;;;;16.57;46.44;91451.03;5026513;28;19961;-88
2023/03/10 03:33:13;;;;;;;;;;;;;;;16.57;46.21;91451.03;5045400;28;20391;-88
2023/03/10 03:35:39;;;;;;;;;;;;;;;16.56;47.34;91455.75;5035586;28;19948;-88
2023/03/10 03:38:04;;;;;;;;;;;;;;;16.56;46.39;91436.66;5033386;28;19920;-87
2023/03/10 03:40:32;;;;;;;;;;;;;;;16.57;46.67;91448.31;5039859;28;20315;-88
2023/03/10 03:42:57;;;;;;;;;;;;;;;16.57;46.93;91453.75;5026338;28;20361;-88
2023/03/10 03:45:23;;;;;;;;;;;;;;;16.55;46.88;91451.56;5028223;28;20012;-88
2023/03/10 03:47:48;;;;;;;;;;;;;;;16.54;46.80;91452.13;5039230;28;19921;-87
2023/03/10 03:50:14;;;;;;;;;;;;;;;16.53;46.54;91447.94;5027702;28;20451;-88
2023/03/10 03:52:40;;;;;;;;;;;;;;;16.54;47.03;91444.66;5031038;28;20499;-87
2023/03/10 03:55:05;;;;;;;;;;;;;;;16.54;46.52;91443.94;5025357;28;19959;-87
2023/03/10 03:57:31;;;;;;;;;;;;;;;16.53;47.02;91442.47;5019998;28;19929;-88
2023/03/10 03:59:56;;;;;;;;;;;;;;;16.52;46.66;91441.75;5038926;28;19933;-87
2023/03/10 04:02:21;;;;;;;;;;;;;;;16.53;47.11;91445.94;5026689;28;20375;-88
2023/03/10 04:04:46;;;;;;;;;;;;;;;16.56;47.21;91441.38;5028872;28;20075;-88
2023/03/10 04:07:12;;;;;;;;;;;;;;;16.54;46.56;91441.94;5029967;28;19929;-87
2023/03/10 04:09:37;;;;;;;;;;;;;;;16.54;46.54;91430.28;5027998;28;19929;-87
2023/03/10 04:12:03;;;;;;;;;;;;;;;16.52;46.47;91424.66;5024036;28;19921;-87
2023/03/10 04:14:28;;;;;;;;;;;;;;;16.52;46.51;91416.47;5034042;28;19940;-87
2023/03/10 04:16:53;;;;;;;;;;;;;;;16.53;47.92;91415.94;5029305;28;20094;-87
2023/03/10 04:19:19;;;;;;;;;;;;;;;16.53;46.28;91415.94;5049482;28;20014;-88
2023/03/10 04:21:44;;;;;;;;;;;;;;;16.53;46.84;91415.19;5051684;28;19978;-87
2023/03/10 04:24:09;;;;;;;;;;;;;;;16.52;46.86;91403.56;5046847;28;19921;-87
2023/03/10 04:26:34;;;;;;;;;;;;;;;16.53;46.21;91399.56;5052207;28;20026;-88
2023/03/10 04:28:59;;;;;;;;;;;;;;;16.53;46.28;91391.38;5031774;28;19925;-88
2023/03/10 04:31:25;;;;;;;;;;;;;;;16.53;46.42;91385.94;5040975;28;19921;-87
2023/03/10 04:33:50;;;;;;;;;;;;;;;16.52;46.47;91389.19;5031702;28;20368;-88
2023/03/10 04:36:15;;;;;;;;;;;;;;;16.52;46.27;91387.19;5027084;28;19929;-87
2023/03/10 04:38:41;;;;;;;;;;;;;;;16.52;46.47;91389.94;5034193;28;19947;-87
2023/03/10 04:41:08;;;;;;;;;;;;;;;16.52;46.61;91381.75;5039991;28;19932;-87
2023/03/10 04:43:33;;;;;;;;;;;;;;;16.51;46.35;91379.56;5051294;28;19962;-88
2023/03/10 04:45:58;;;;;;;;;;;;;;;16.52;46.68;91381.75;5051029;28;19928;-87
2023/03/10 04:48:24;;;;;;;;;;;;;;;16.50;46.23;91381.56;5046620;28;19921;-87
2023/03/10 04:50:59;;;;;;;;;;;;;;;16.49;46.29;91374.66;5045611;28;19967;-87
2023/03/10 04:53:24;;;;;;;;;;;;;;;16.50;47.37;91373.38;5032108;28;20402;-87
2023/03/10 04:55:50;;;;;;;;;;;;;;;16.49;46.72;91371.94;5035666;28;19924;-88
2023/03/10 04:58:16;;;;;;;;;;;;;;;16.50;46.75;91365.19;5050834;28;20393;-88
2023/03/10 05:00:41;;;;;;;;;;;;;;;16.49;46.44;91361.03;5048966;28;19929;-88
2023/03/10 05:03:06;;;;;;;;;;;;;;;16.51;47.17;91355.03;5036356;28;20386;-87
2023/03/10 05:05:35;;;;;;;;;;;;;;;16.51;46.51;91361.19;5048269;28;19928;-87
2023/03/10 05:08:00;;;;;;;;;;;;;;;16.51;46.74;91361.19;5050793;28;19946;-88
2023/03/10 05:10:25;;;;;;;;;;;;;;;16.50;46.19;91359.03;5047737;28;20577;-87
2023/03/10 05:12:50;;;;;;;;;;;;;;;16.50;46.49;91350.84;5029163;28;19924;-87
2023/03/10 05:15:16;;;;;;;;;;;;;;;16.49;46.33;91358.28;5068325;28;19928;-88
2023/03/10 05:17:41;;;;;;;;;;;;;;;16.49;46.57;91358.28;5050489;28;20474;-88
2023/03/10 05:20:08;;;;;;;;;;;;;;;16.50;47.22;91362.47;5060563;28;19928;-88
2023/03/10 05:22:33;;;;;;;;;;;;;;;16.52;47.55;91367.38;5034048;28;19928;-87
2023/03/10 05:24:59;;;;;;;;;;;;;;;16.50;48.18;91364.47;5030545;28;19951;-88
2023/03/10 05:27:24;;;;;;;;;;;;;;;16.48;47.87;91367.75;5044098;28;20216;-88
2023/03/10 05:29:49;;;;;;;;;;;;;;;16.45;48.08;91353.19;5041620;28;19933;-87
2023/03/10 05:32:14;;;;;;;;;;;;;;;16.44;48.27;91356.50;5050528;28;20294;-88
2023/03/10 05:34:40;;;;;;;;;;;;;;;16.44;47.77;91351.06;5049767;28;19975;-87
2023/03/10 05:37:05;;;;;;;;;;;;;;;16.46;46.66;91354.66;5047390;28;19932;-88
2023/03/10 05:39:30;;;;;;;;;;;;;;;16.45;47.11;91345.03;5042601;28;20323;-88
2023/03/10 05:41:56;;;;;;;;;;;;;;;16.44;47.15;91354.50;5020956;28;19932;-87
2023/03/10 05:44:21;;;;;;;;;;;;;;;16.43;46.96;91350.31;5050892;28;20138;-87
2023/03/10 05:46:46;;;;;;;;;;;;;;;16.46;46.35;91345.75;5067729;28;19963;-87
2023/03/10 05:49:11;;;;;;;;;;;;;;;16.46;46.52;91340.28;5025786;28;20298;-87
2023/03/10 05:51:37;;;;;;;;;;;;;;;16.50;47.40;91350.84;5027003;28;19929;-88
2023/03/10 05:54:04;;;;;;;;;;;;;;;16.50;46.37;91342.66;5046569;28;19936;-87
2023/03/10 05:56:29;;;;;;;;;;;;;;;16.52;47.05;91346.28;5046359;28;19928;-87
2023/03/10 05:58:55;;;;;;;;;;;;;;;16.53;46.93;91347.03;5023032;28;19927;-87
2023/03/10 06:01:20;;;;;;;;;;;;;;;16.53;46.67;91349.75;5041649;28;20024;-87
2023/03/10 06:03:45;;;;;;;;;;;;;;;16.53;46.39;91353.19;5047332;28;19935;-87
2023/03/10 06:06:11;;;;;;;;;;;;;;;16.55;46.49;91347.19;5032808;28;19931;-87
2023/03/10 06:08:36;;;;;;;;;;;;;;;16.55;46.71;91347.94;5067930;28;19962;-87
2023/03/10 06:11:01;;;;;;;;;;;;;;;16.58;46.70;91351.56;5026628;28;19932;-89
2023/03/10 06:13:27;;;;;;;;;;;;;;;16.58;46.37;91344.09;5041112;28;20003;-89
2023/03/10 06:15:54;;;;;;;;;;;;;;;16.59;46.77;91348.28;5034595;28;19929;-88
2023/03/10 06:18:19;;;;;;;;;;;;;;;16.59;46.30;91342.09;5029061;28;19920;-87
2023/03/10 06:20:45;;;;;;;;;;;;;;;16.61;47.09;91334.09;5047005;28;20306;-89
2023/03/10 06:23:11;;;;;;;;;;;;;;;16.63;46.57;91347.91;5048652;28;19925;-88
2023/03/10 06:25:36;;;;;;;;;;;;;;;16.62;46.78;91341.00;5026891;28;19928;-87
2023/03/10 06:28:01;;;;;;;;;;;;;;;16.63;46.46;91350.66;5038273;28;19928;-88
2023/03/10 06:30:26;;;;;;;;;;;;;;;16.63;46.09;91345.94;5026259;28;19936;-88
2023/03/10 06:32:52;;;;;;;;;;;;;;;16.63;46.65;91348.69;5020442;28;20430;-88
2023/03/10 06:35:17;;;;;;;;;;;;;;;16.67;46.12;91340.13;5041251;28;19928;-88
2023/03/10 06:37:43;;;;;;;;;;;;;;;16.67;46.75;91331.94;5021522;28;19932;-88
2023/03/10 06:40:11;;;;;;;;;;;;;;;16.67;46.55;91340.81;5046077;28;19925;-90
2023/03/10 06:42:37;;;;;;;;;;;;;;;16.67;46.96;91334.66;5040676;28;19975;-86
2023/03/10 06:45:02;;;;;;;;;;;;;;;16.67;46.35;91340.13;5046236;28;19931;-88
2023/03/10 06:47:28;;;;;;;;;;;;;;;16.66;46.93;91349.59;5029833;28;19931;-87
2023/03/10 06:49:53;;;;;;;;;;;;;;;16.66;46.66;91353.03;5028650;28;19936;-88
2023/03/10 06:52:18;;;;;;;;;;;;;;;16.67;47.17;91346.28;5048270;28;19928;-88
2023/03/10 06:54:44;;;;;;;;;;;;;;;16.66;46.87;91353.03;5044833;28;19928;-87
2023/03/10 06:57:09;;;;;;;;;;;;;;;16.66;46.55;91346.84;5031587;28;20057;-87
2023/03/10 06:59:34;;;;;;;;;;;;;;;16.65;46.99;91351.59;5026876;28;19960;-87
2023/03/10 07:01:59;;;;;;;;;;;;;;;16.64;47.07;91347.41;5044662;28;20263;-88
2023/03/10 07:04:25;;;;;;;;;;;;;;;16.65;47.10;91350.84;5027011;28;19924;-87
2023/03/10 07:06:50;;;;;;;;;;;;;;;16.67;46.78;91356.50;5024068;28;19929;-87
2023/03/10 07:09:15;;;;;;;;;;;;;;;16.68;46.80;91347.72;5064984;28;20012;-88
2023/03/10 07:11:40;;;;;;;;;;;;;;;16.68;46.58;91358.66;5042145;28;19924;-88
2023/03/10 07:14:06;;;;;;;;;;;;;;;16.68;46.79;91360.66;5037149;28;20007;-88
2023/03/10 07:16:31;;;;;;;;;;;;;;;16.70;46.82;91361.56;5031874;28;20413;-87
2023/03/10 07:18:56;;;;;;;;;;;;;;;16.67;46.31;91362.66;5029314;28;19925;-87
2023/03/10 07:21:21;;;;;;;;;;;;;;;16.70;46.54;91366.28;5015467;28;20003;-88
2023/03/10 07:23:47;;;;;;;;;;;;;;;16.69;46.33;91367.56;5032050;28;20341;-87
2023/03/10 07:26:12;;;;;;;;;;;;;;;16.72;46.70;91378.09;5028214;28;20074;-87
2023/03/10 07:28:38;;;;;;;;;;;;;;;16.73;45.83;91376.09;5045807;28;20217;-87
2023/03/10 07:31:03;;;;;;;;;;;;;;;16.72;46.38;91382.84;5035507;28;20383;-87
2023/03/10 07:33:29;;;;;;;;;;;;;;;16.71;46.28;91395.75;5047399;28;19928;-87
2023/03/10 07:35:54;;;;;;;;;;;;;;;16.72;46.41;91391.03;5037423;28;19931;-87
2023/03/10 07:38:19;;;;;;;;;;;;;;;16.74;46.20;91402.84;5043337;28;20382;-88
2023/03/10 07:40:44;;;;;;;;;;;;;;;16.73;46.01;91398.66;5023193;28;19929;-88
2023/03/10 07:43:10;;;;;;;;;;;;;;;16.73;46.13;91395.94;5047858;28;20367;-87
2023/03/10 07:45:35;;;;;;;;;;;;;;;16.74;46.13;91391.19;5031001;28;19936;-88
2023/03/10 07:48:01;;;;;;;;;;;;;;;16.74;45.94;91397.38;5034018;28;20034;-88
2023/03/10 07:50:26;;;;;;;;;;;;;;;16.74;46.28;91393.94;5022784;28;21029;-87
2023/03/10 07:52:51;;;;;;;;;;;;;;;16.75;46.04;91403.56;5025184;28;19924;-88
2023/03/10 07:55:17;;;;;;;;;;;;;;;16.75;46.48;91379.75;5035555;28;19959;-88
2023/03/10 07:57:42;;;;;;;;;;;;;;;16.74;46.11;91391.94;5027902;28;19932;-87
2023/03/10 08:00:08;;;;;;;;;;;;;;;16.74;46.50;91397.38;5023514;28;20063;-88
2023/03/10 08:02:33;;;;;;;;;;;;;;;16.71;45.88;91400.47;5017099;28;19988;-87
2023/03/10 08:04:58;;;;;;;;;;;;;;;16.73;47.79;91384.28;5039460;28;19948;-86
2023/03/10 08:07:26;;;;;;;;;;;;;;;16.74;46.37;91397.38;5034371;28;20108;-87
2023/03/10 08:09:51;;;;;;;;;;;;;;;16.73;46.36;91395.94;5045755;28;19925;-87
2023/03/10 08:12:17;;;;;;;;;;;;;;;16.73;46.17;91393.19;5028558;28;20295;-87
2023/03/10 08:14:42;;;;;;;;;;;;;;;16.72;46.10;91391.03;5041353;28;19932;-87
2023/03/10 08:17:07;;;;;;;;;;;;;;;16.70;44.99;91396.28;5032899;28;19925;-87
2023/03/10 08:19:33;;;;;;;;;;;;;;;16.69;45.11;91394.84;5043155;28;19994;-87
2023/03/10 08:22:00;;;;;;;;;;;;;;;16.69;45.17;91392.13;5010067;28;20000;-87
2023/03/10 08:24:26;;;;;;;;;;;;;;;16.68;45.13;91396.84;5041445;28;20328;-88
2023/03/10 08:26:52;;;;;;;;;;;;;;;16.69;45.26;91392.13;5039961;28;19991;-87
2023/03/10 08:29:17;;;;;;;;;;;;;;;16.70;45.09;91399.75;5046003;28;20295;-87
2023/03/10 08:31:42;;;;;;;;;;;;;;;16.71;45.09;91395.75;5031878;28;20117;-88
2023/03/10 08:34:08;;;;;;;;;;;;;;;16.71;45.32;91393.03;5045795;28;20016;-88
2023/03/10 08:36:33;;;;;;;;;;;;;;;16.71;45.49;91378.66;5038939;28;19960;-88
2023/03/10 08:38:59;;;;;;;;;;;;;;;16.70;45.59;91385.38;5029127;28;19983;-88
2023/03/10 08:41:27;;;;;;;;;;;;;;;16.69;45.66;91387.38;5042809;28;19987;-88
2023/03/10 08:43:52;;;;;;;;;;;;;;;16.69;44.99;91384.66;5050995;28;19924;-88
2023/03/10 08:46:18;;;;;;;;;;;;;;;16.69;45.50;91383.94;5024949;28;19936;-88
2023/03/10 08:48:43;;;;;;;;;;;;;;;16.71;45.64;91381.38;5033409;28;19928;-88
2023/03/10 08:51:08;;;;;;;;;;;;;;;16.71;45.88;91381.38;5040877;28;20322;-88
2023/03/10 08:53:34;;;;;;;;;;;;;;;16.67;45.67;91379.03;5034281;28;19925;-86
2023/03/10 08:55:59;;;;;;;;;;;;;;;16.70;45.47;91388.09;5045112;28;20298;-88
2023/03/10 08:58:25;;;;;;;;;;;;;;;16.69;45.90;91379.19;5066442;28;19920;-87
2023/03/10 09:00:51;;;;;;;;;;;;;;;16.69;45.83;91375.75;5050638;28;19932;-87
2023/03/10 09:03:16;;;;;;;;;;;;;;;16.70;45.50;91369.75;5031020;28;19924;-88
2023/03/10 09:05:41;;;;;;;;;;;;;;;16.70;45.52;91364.28;5029621;28;19928;-88
2023/03/10 09:08:07;;;;;;;;;;;;;;;16.72;45.79;91358.28;5047454;28;20621;-87
2023/03/10 09:10:33;;;;;;;;;;;;;;;16.71;45.52;91356.81;5044639;28;19971;-86
2023/03/10 09:12:58;;;;;;;;;;;;;;;16.72;45.46;91363.75;5049357;28;19960;-86
2023/03/10 09:15:24;;;;;;;;;;;;;;;16.73;45.72;91354.28;5026261;28;20011;-88
2023/03/10 09:17:49;;;;;;;;;;;;;;;16.71;45.72;91346.63;5048477;28;20014;-89
2023/03/10 09:20:25;;;;;;;;;;;;;;;16.73;46.00;91351.56;5040710;28;19948;-88
2023/03/10 09:22:51;;;;;;;;;;;;;;;16.72;45.75;91358.28;5068063;28;19974;-88
2023/03/10 09:25:17;;;;;;;;;;;;;;;16.73;46.00;91346.09;5043906;28;19948;-88
2023/03/10 09:27:43;;;;;;;;;;;;;;;16.72;46.24;91348.09;5040301;28;19928;-88
2023/03/10 09:30:08;;;;;;;;;;;;;;;16.72;45.92;91350.81;5020918;28;19928;-88
2023/03/10 09:32:34;;;;;;;;;;;;;;;16.71;46.11;91352.09;5022805;28;19933;-88
2023/03/10 09:34:59;;;;;;;;;;;;;;;16.69;45.70;91337.56;5070398;28;20054;-88
2023/03/10 09:37:24;;;;;;;;;;;;;;;16.69;45.85;91351.19;5024185;28;21182;-89
2023/03/10 09:39:50;;;;;;;;;;;;;;;16.70;45.60;91344.47;5062869;28;19920;-89
2023/03/10 09:42:32;;;;;;;;;;;;;;;16.63;44.70;91345.19;5023827;28;20015;-89
2023/03/10 09:45:18;;;;;;;;;;;;;;;16.56;44.63;91340.47;5052293;28;19932;-90
2023/03/10 09:47:46;;;;;;;;;;;;;;;16.53;44.45;91336.84;5050006;28;19924;-89
2023/03/10 09:50:26;;;;;;;;;;;;;;;16.57;44.44;91344.66;5047566;28;19956;-87
2023/03/10 09:52:54;;;;;;;;;;;;;;;16.60;45.31;91340.84;5025101;28;20024;-88
2023/03/10 09:55:20;;;;;;;;;;;;;;;16.61;45.08;91348.47;5065547;28;19966;-87
2023/03/10 09:57:46;;;;;;;;;;;;;;;16.64;44.72;91343.94;5021213;28;19925;-89
2023/03/10 10:00:14;;;;;;;;;;;;;;;16.65;45.13;91337.22;5013352;28;19969;-88
2023/03/10 10:02:41;;;;;;;;;;;;;;;16.67;44.99;91334.66;5030235;28;19932;-86
2023/03/10 10:05:10;;;;;;;;;;;;;;;16.70;45.39;91330.81;5027791;28;19947;-88
2023/03/10 10:07:40;;;;;;;;;;;;;;;16.70;45.24;91326.09;5046601;28;19953;-88
2023/03/10 10:10:08;;;;;;;;;;;;;;;16.71;44.92;91327.53;5048327;28;19929;-87
2023/03/10 10:12:33;;;;;;;;;;;;;;;16.73;45.07;91318.81;5030793;28;20456;-88
2023/03/10 10:15:00;;;;;;;;;;;;;;;16.73;45.35;91322.25;5045583;28;19963;-89
2023/03/10 10:17:32;;;;;;;;;;;;;;;16.73;45.61;91319.53;5040974;28;19983;-88
2023/03/10 10:19:58;;;;;;;;;;;;;;;16.72;45.69;91318.09;5049550;28;19948;-88
2023/03/10 10:22:26;;;;;;;;;;;;;;;16.72;45.22;91317.34;5039327;28;20375;-88
2023/03/10 10:24:59;;;;;;;;;;;;;;;16.74;45.37;91318.25;5049186;28;19932;-88
2023/03/10 10:27:24;;;;;;;;;;;;;;;16.74;45.21;91321.00;5035474;28;19925;-90
2023/03/10 10:29:49;;;;;;;;;;;;;;;16.75;45.53;91314.25;5030574;28;19966;-90
2023/03/10 10:32:14;;;;;;;;;;;;;;;16.77;45.16;91321.91;5034240;28;20313;-89
2023/03/10 10:34:43;;;;;;;;;;;;;;;16.78;45.53;91312.44;5030134;28;19935;-90
2023/03/10 10:37:24;;;;;;;;;;;;;;;16.78;45.38;91309.72;5032524;28;20403;-89
2023/03/10 10:39:50;;;;;;;;;;;;;;;16.79;45.07;91311.16;5045494;28;19927;-89
2023/03/10 10:42:19;;;;;;;;;;;;;;;16.77;45.52;91311.72;5023672;28;20386;-88
2023/03/10 10:44:44;;;;;;;;;;;;;;;16.76;45.41;91307.53;5049438;28;19921;-88
2023/03/10 10:47:29;;;;;;;;;;;;;;;16.75;45.63;91302.63;5032433;28;19932;-89
2023/03/10 10:49:55;;;;;;;;;;;;;;;16.76;45.66;91293.88;5024110;28;19921;-89
2023/03/10 10:52:22;;;;;;;;;;;;;;;16.74;45.37;91298.44;5043095;28;20023;-89
2023/03/10 10:54:55;;;;;;;;;;;;;;;16.74;45.62;91298.44;5029578;28;20030;-88
2023/03/10 10:57:21;;;;;;;;;;;;;;;16.74;45.43;91287.53;5038606;28;20406;-88
2023/03/10 10:59:46;;;;;;;;;;;;;;;16.69;45.00;91277.53;5040907;28;19921;-89
2023/03/10 11:02:30;;;;;;;;;;;;;;;16.67;44.71;91285.56;5044509;28;20342;-88
2023/03/10 11:05:05;;;;;;;;;;;;;;;16.65;44.96;91282.66;5045963;28;19927;-89
2023/03/10 11:07:31;;;;;;;;;;;;;;;16.64;44.85;91273.75;5021910;28;19936;-88
2023/03/10 11:09:56;;;;;;;;;;;;;;;16.63;44.60;91277.00;5042307;28;20115;-88
2023/03/10 11:12:32;;;;;;;;;;;;;;;16.64;44.54;91281.22;5023448;28;21856;-89
2023/03/10 11:15:18;;;;;;;;;;;;;;;16.63;44.48;91282.47;5045308;28;20145;-88
2023/03/10 11:17:59;;;;;;;;;;;;;;;16.62;44.49;91283.72;5036109;28;19925;-88
2023/03/10 11:20:36;;;;;;;;;;;;;;;16.61;44.28;91285.00;5042693;28;19921;-89
2023/03/10 11:23:15;;;;;;;;;;;;;;;16.60;44.71;91281.56;5040181;28;19973;-88
2023/03/10 11:25:40;;;;;;;;;;;;;;;16.59;44.46;91277.38;5025623;28;19925;-88
2023/03/10 11:28:15;;;;;;;;;;;;;;;16.59;44.58;91277.38;5037816;28;19932;-88
2023/03/10 11:30:48;;;;;;;;;;;;;;;16.59;44.75;91271.91;5046017;28;19925;-88
2023/03/10 11:33:25;;;;;;;;;;;;;;;16.59;44.83;91276.66;5018355;28;20011;-89
2023/03/10 11:35:52;;;;;;;;;;;;;;;16.58;44.99;91273.19;5048260;28;19980;-88
2023/03/10 11:38:36;;;;;;;;;;;;;;;16.59;44.84;91266.47;5037503;28;19929;-89
2023/03/10 11:41:03;;;;;;;;;;;;;;;16.61;44.69;91266.63;5043895;28;19920;-88
2023/03/10 11:43:37;;;;;;;;;;;;;;;16.59;43.99;91254.81;5045959;28;20156;-89
2023/03/10 11:46:14;;;;;;;;;;;;;;;16.63;44.77;91258.66;5047561;28;20292;-88
2023/03/10 11:48:43;;;;;;;;;;;;;;;16.64;44.44;91251.19;5029730;28;20305;-88
2023/03/10 11:51:11;;;;;;;;;;;;;;;16.66;44.92;91249.38;5031588;28;19920;-88
2023/03/10 11:53:36;;;;;;;;;;;;;;;16.70;44.82;91243.53;5036755;28;19955;-89
2023/03/10 11:56:02;;;;;;;;;;;;;;;16.70;45.15;91252.44;5038417;28;19956;-89
2023/03/10 11:58:34;;;;;;;;;;;;;;;16.71;44.36;91247.69;5045208;28;19932;-88
2023/03/10 12:00:59;;;;;;;;;;;;;;;16.70;44.57;91243.53;5033237;28;20409;-88
2023/03/10 12:03:27;;;;;;;;;;;;;;;16.70;44.90;91238.78;5029073;28;19960;-88
2023/03/10 12:05:56;;;;;;;;;;;;;;;16.70;44.72;91236.06;5056304;28;19928;-89
2023/03/10 12:08:22;;;;;;;;;;;;;;;16.72;44.42;91232.78;5043372;28;19946;-89
2023/03/10 12:10:48;;;;;;;;;;;;;;;16.71;44.41;91226.59;5038077;28;19928;-87
2023/03/10 12:13:23;;;;;;;;;;;;;;;16.71;44.36;91228.59;5034606;28;19920;-88
2023/03/10 12:15:50;;;;;;;;;;;;;;;16.70;44.18;91229.88;5046560;28;20366;-87
2023/03/10 12:18:15;;;;;;;;;;;;;;;16.69;44.64;91222.97;5047566;28;20382;-88
2023/03/10 12:20:41;;;;;;;;;;;;;;;16.71;44.55;91209.50;5031927;28;19931;-88
2023/03/10 12:23:10;;;;;;;;;;;;;;;16.71;44.51;91214.97;5035744;28;20342;-88
2023/03/10 12:25:37;;;;;;;;;;;;;;;16.72;44.35;91219.88;5072705;28;19939;-89
2023/03/10 12:28:15;;;;;;;;;;;;;;;16.70;44.55;91206.06;5049227;28;19929;-88
2023/03/10 12:30:55;;;;;;;;;;;;;;;16.71;44.32;91204.78;5038778;28;19967;-88
2023/03/10 12:33:29;;;;;;;;;;;;;;;16.70;44.79;91200.59;5070018;28;19974;-88
2023/03/10 12:36:08;;;;;;;;;;;;;;;16.71;44.94;91204.06;5043462;28;19924;-88
2023/03/10 12:38:44;;;;;;;;;;;;;;;16.71;44.52;91195.88;5043881;28;19932;-88
2023/03/10 12:41:09;;;;;;;;;;;;;;;16.72;44.75;91198.03;5019240;28;19932;-89
2023/03/10 12:43:53;;;;;;;;;;;;;;;16.72;44.31;91202.78;5036370;28;19928;-89
2023/03/10 12:46:22;;;;;;;;;;;;;;;16.73;44.28;91201.50;5070640;28;19974;-88